sensor_id;sensor_type;location;lat;lon;timestamp;P1;durP1;ratioP1;P2;durP2;ratioP2
42192;SDS011;52467;40.114;18.306;2023-09-12T00:02:11;0.10;;;0.10;;
42192;SDS011;52467;40.114;18.306;2023-09-12T00:04:38;0.10;;;0.10;;
42192;SDS011;52467;40.114;18.306;2023-09-12T00:07:06;0.10;;;0.10;;
42192;SDS011;52467;40.114;18.306;2023-09-12T00:09:33;0.10;;;0.10;;
42192;SDS011;52467;40.114;18.306;2023-09-12T00:12:00;0.10;;;0.10;;
42192;SDS011;52467;40.114;18.306;2023-09-12T00:14:28;0.10;;;0.10;;
42192;SDS011;52467;40.114;18.306;2023-09-12T00:16:55;0.10;;;0.10;;
42192;SDS011;52467;40.114;18.306;2023-09-12T00:19:22;0.10;;;0.10;;
42192;SDS011;52467;40.114;18.306;2023-09-12T00:21:50;0.10;;;0.10;;
42192;SDS011;52467;40.114;18.306;2023-09-12T00:24:20;0.10;;;0.10;;
42192;SDS011;52467;40.114;18.306;2023-09-12T00:26:47;0.10;;;0.10;;
42192;SDS011;52467;40.114;18.306;2023-09-12T00:29:15;0.10;;;0.10;;
42192;SDS011;52467;40.114;18.306;2023-09-12T00:31:42;0.10;;;0.10;;
42192;SDS011;52467;40.114;18.306;2023-09-12T00:34:09;0.10;;;0.10;;
42192;SDS011;52467;40.114;18.306;2023-09-12T00:36:36;0.10;;;0.10;;
42192;SDS011;52467;40.114;18.306;2023-09-12T00:39:04;0.10;;;0.10;;
42192;SDS011;52467;40.114;18.306;2023-09-12T00:41:31;0.10;;;0.10;;
42192;SDS011;52467;40.114;18.306;2023-09-12T00:43:59;0.10;;;0.10;;
42192;SDS011;52467;40.114;18.306;2023-09-12T00:46:26;0.10;;;0.10;;
42192;SDS011;52467;40.114;18.306;2023-09-12T00:48:55;0.10;;;0.10;;
42192;SDS011;52467;40.114;18.306;2023-09-12T00:51:25;0.10;;;0.10;;
42192;SDS011;52467;40.114;18.306;2023-09-12T00:53:53;0.10;;;0.10;;
42192;SDS011;52467;40.114;18.306;2023-09-12T00:56:23;0.10;;;0.10;;
42192;SDS011;52467;40.114;18.306;2023-09-12T00:58:50;0.10;;;0.10;;
42192;SDS011;52467;40.114;18.306;2023-09-12T01:01:19;0.10;;;0.10;;
42192;SDS011;52467;40.114;18.306;2023-09-12T01:03:48;0.10;;;0.10;;
42192;SDS011;52467;40.114;18.306;2023-09-12T01:06:16;0.10;;;0.10;;
42192;SDS011;52467;40.114;18.306;2023-09-12T01:08:46;0.10;;;0.10;;
42192;SDS011;52467;40.114;18.306;2023-09-12T01:11:14;0.10;;;0.10;;
42192;SDS011;52467;40.114;18.306;2023-09-12T01:13:41;0.10;;;0.10;;
42192;SDS011;52467;40.114;18.306;2023-09-12T01:16:08;0.10;;;0.10;;
42192;SDS011;52467;40.114;18.306;2023-09-12T01:18:36;0.10;;;0.10;;
42192;SDS011;52467;40.114;18.306;2023-09-12T01:26:49;0.10;;;0.10;;
42192;SDS011;52467;40.114;18.306;2023-09-12T01:29:23;0.10;;;0.10;;
42192;SDS011;52467;40.114;18.306;2023-09-12T01:31:52;0.10;;;0.10;;
42192;SDS011;52467;40.114;18.306;2023-09-12T01:34:19;0.10;;;0.10;;
42192;SDS011;52467;40.114;18.306;2023-09-12T01:36:47;0.10;;;0.10;;
42192;SDS011;52467;40.114;18.306;2023-09-12T01:39:14;0.10;;;0.10;;
42192;SDS011;52467;40.114;18.306;2023-09-12T01:41:42;0.10;;;0.10;;
42192;SDS011;52467;40.114;18.306;2023-09-12T01:44:11;0.10;;;0.10;;
42192;SDS011;52467;40.114;18.306;2023-09-12T01:46:39;0.10;;;0.10;;
42192;SDS011;52467;40.114;18.306;2023-09-12T01:49:09;0.10;;;0.10;;
42192;SDS011;52467;40.114;18.306;2023-09-12T01:51:37;0.10;;;0.10;;
42192;SDS011;52467;40.114;18.306;2023-09-12T01:54:05;0.10;;;0.10;;
42192;SDS011;52467;40.114;18.306;2023-09-12T01:56:33;0.10;;;0.10;;
42192;SDS011;52467;40.114;18.306;2023-09-12T01:59:00;0.10;;;0.10;;
42192;SDS011;52467;40.114;18.306;2023-09-12T02:01:29;0.10;;;0.10;;
42192;SDS011;52467;40.114;18.306;2023-09-12T02:03:58;0.10;;;0.10;;
42192;SDS011;52467;40.114;18.306;2023-09-12T02:06:25;0.10;;;0.10;;
42192;SDS011;52467;40.114;18.306;2023-09-12T02:08:53;0.10;;;0.10;;
42192;SDS011;52467;40.114;18.306;2023-09-12T02:11:20;0.10;;;0.10;;
42192;SDS011;52467;40.114;18.306;2023-09-12T02:13:48;0.10;;;0.10;;
42192;SDS011;52467;40.114;18.306;2023-09-12T02:16:15;0.10;;;0.10;;
42192;SDS011;52467;40.114;18.306;2023-09-12T02:18:43;0.10;;;0.10;;
42192;SDS011;52467;40.114;18.306;2023-09-12T02:21:10;0.10;;;0.10;;
42192;SDS011;52467;40.114;18.306;2023-09-12T02:23:38;0.10;;;0.10;;
42192;SDS011;52467;40.114;18.306;2023-09-12T02:26:05;0.10;;;0.10;;
42192;SDS011;52467;40.114;18.306;2023-09-12T02:28:32;0.10;;;0.10;;
42192;SDS011;52467;40.114;18.306;2023-09-12T02:31:00;0.10;;;0.10;;
42192;SDS011;52467;40.114;18.306;2023-09-12T02:33:27;0.10;;;0.10;;
42192;SDS011;52467;40.114;18.306;2023-09-12T02:35:54;0.10;;;0.10;;
42192;SDS011;52467;40.114;18.306;2023-09-12T02:38:22;0.10;;;0.10;;
42192;SDS011;52467;40.114;18.306;2023-09-12T02:40:49;0.10;;;0.10;;
42192;SDS011;52467;40.114;18.306;2023-09-12T02:43:16;0.10;;;0.10;;
42192;SDS011;52467;40.114;18.306;2023-09-12T02:45:44;0.10;;;0.10;;
42192;SDS011;52467;40.114;18.306;2023-09-12T02:48:11;0.10;;;0.10;;
42192;SDS011;52467;40.114;18.306;2023-09-12T02:50:39;0.10;;;0.10;;
42192;SDS011;52467;40.114;18.306;2023-09-12T02:53:06;0.10;;;0.10;;
42192;SDS011;52467;40.114;18.306;2023-09-12T02:55:33;0.10;;;0.10;;
42192;SDS011;52467;40.114;18.306;2023-09-12T02:58:07;0.10;;;0.10;;
42192;SDS011;52467;40.114;18.306;2023-09-12T03:00:37;0.10;;;0.10;;
42192;SDS011;52467;40.114;18.306;2023-09-12T03:03:07;0.10;;;0.10;;
42192;SDS011;52467;40.114;18.306;2023-09-12T03:05:38;0.10;;;0.10;;
42192;SDS011;52467;40.114;18.306;2023-09-12T03:08:05;0.10;;;0.10;;
42192;SDS011;52467;40.114;18.306;2023-09-12T03:10:32;0.10;;;0.10;;
42192;SDS011;52467;40.114;18.306;2023-09-12T03:13:00;0.10;;;0.10;;
42192;SDS011;52467;40.114;18.306;2023-09-12T03:15:28;0.10;;;0.10;;
42192;SDS011;52467;40.114;18.306;2023-09-12T03:17:55;0.10;;;0.10;;
42192;SDS011;52467;40.114;18.306;2023-09-12T03:20:23;0.10;;;0.10;;
42192;SDS011;52467;40.114;18.306;2023-09-12T03:22:50;0.10;;;0.10;;
42192;SDS011;52467;40.114;18.306;2023-09-12T03:25:17;0.10;;;0.10;;
42192;SDS011;52467;40.114;18.306;2023-09-12T03:27:45;0.10;;;0.10;;
42192;SDS011;52467;40.114;18.306;2023-09-12T03:30:12;0.10;;;0.10;;
42192;SDS011;52467;40.114;18.306;2023-09-12T03:32:39;0.10;;;0.10;;
42192;SDS011;52467;40.114;18.306;2023-09-12T03:35:07;0.10;;;0.10;;
42192;SDS011;52467;40.114;18.306;2023-09-12T03:37:34;0.10;;;0.10;;
42192;SDS011;52467;40.114;18.306;2023-09-12T03:40:06;0.10;;;0.10;;
42192;SDS011;52467;40.114;18.306;2023-09-12T03:42:34;0.10;;;0.10;;
42192;SDS011;52467;40.114;18.306;2023-09-12T03:45:07;0.10;;;0.10;;
42192;SDS011;52467;40.114;18.306;2023-09-12T03:47:35;0.10;;;0.10;;
42192;SDS011;52467;40.114;18.306;2023-09-12T03:50:03;0.10;;;0.10;;
42192;SDS011;52467;40.114;18.306;2023-09-12T03:52:30;0.10;;;0.10;;
42192;SDS011;52467;40.114;18.306;2023-09-12T03:54:58;0.10;;;0.10;;
42192;SDS011;52467;40.114;18.306;2023-09-12T03:57:28;0.10;;;0.10;;
42192;SDS011;52467;40.114;18.306;2023-09-12T03:59:55;0.10;;;0.10;;
42192;SDS011;52467;40.114;18.306;2023-09-12T04:02:23;0.10;;;0.10;;
42192;SDS011;52467;40.114;18.306;2023-09-12T04:04:51;0.10;;;0.10;;
42192;SDS011;52467;40.114;18.306;2023-09-12T04:07:19;0.10;;;0.10;;
42192;SDS011;52467;40.114;18.306;2023-09-12T04:09:46;0.10;;;0.10;;
42192;SDS011;52467;40.114;18.306;2023-09-12T04:12:14;0.10;;;0.10;;
42192;SDS011;52467;40.114;18.306;2023-09-12T04:14:41;0.10;;;0.10;;
42192;SDS011;52467;40.114;18.306;2023-09-12T04:17:08;0.10;;;0.10;;
42192;SDS011;52467;40.114;18.306;2023-09-12T04:19:36;0.10;;;0.10;;
42192;SDS011;52467;40.114;18.306;2023-09-12T04:22:03;0.10;;;0.10;;
42192;SDS011;52467;40.114;18.306;2023-09-12T04:24:31;0.10;;;0.10;;
42192;SDS011;52467;40.114;18.306;2023-09-12T04:26:58;0.10;;;0.10;;
42192;SDS011;52467;40.114;18.306;2023-09-12T04:29:26;0.10;;;0.10;;
42192;SDS011;52467;40.114;18.306;2023-09-12T04:31:56;0.10;;;0.10;;
42192;SDS011;52467;40.114;18.306;2023-09-12T04:34:26;0.10;;;0.10;;
42192;SDS011;52467;40.114;18.306;2023-09-12T04:36:54;0.10;;;0.10;;
42192;SDS011;52467;40.114;18.306;2023-09-12T04:39:23;0.10;;;0.10;;
42192;SDS011;52467;40.114;18.306;2023-09-12T04:41:50;0.10;;;0.10;;
42192;SDS011;52467;40.114;18.306;2023-09-12T04:44:19;0.10;;;0.10;;
42192;SDS011;52467;40.114;18.306;2023-09-12T04:46:46;0.10;;;0.10;;
42192;SDS011;52467;40.114;18.306;2023-09-12T04:49:13;0.10;;;0.10;;
42192;SDS011;52467;40.114;18.306;2023-09-12T04:51:41;0.10;;;0.10;;
42192;SDS011;52467;40.114;18.306;2023-09-12T04:54:10;0.10;;;0.10;;
42192;SDS011;52467;40.114;18.306;2023-09-12T04:56:37;0.10;;;0.10;;
42192;SDS011;52467;40.114;18.306;2023-09-12T04:59:05;0.10;;;0.10;;
42192;SDS011;52467;40.114;18.306;2023-09-12T05:01:33;0.10;;;0.10;;
42192;SDS011;52467;40.114;18.306;2023-09-12T05:04:00;0.10;;;0.10;;
42192;SDS011;52467;40.114;18.306;2023-09-12T05:06:29;0.10;;;0.10;;
42192;SDS011;52467;40.114;18.306;2023-09-12T05:08:57;0.10;;;0.10;;
42192;SDS011;52467;40.114;18.306;2023-09-12T05:11:25;0.10;;;0.10;;
42192;SDS011;52467;40.114;18.306;2023-09-12T05:13:52;0.10;;;0.10;;
42192;SDS011;52467;40.114;18.306;2023-09-12T05:16:19;0.10;;;0.10;;
42192;SDS011;52467;40.114;18.306;2023-09-12T05:18:47;0.10;;;0.10;;
42192;SDS011;52467;40.114;18.306;2023-09-12T05:21:16;0.10;;;0.10;;
42192;SDS011;52467;40.114;18.306;2023-09-12T05:23:43;0.10;;;0.10;;
42192;SDS011;52467;40.114;18.306;2023-09-12T05:26:10;0.10;;;0.10;;
42192;SDS011;52467;40.114;18.306;2023-09-12T05:28:38;0.10;;;0.10;;
42192;SDS011;52467;40.114;18.306;2023-09-12T05:31:05;0.10;;;0.10;;
42192;SDS011;52467;40.114;18.306;2023-09-12T05:33:34;0.10;;;0.10;;
42192;SDS011;52467;40.114;18.306;2023-09-12T05:36:01;0.10;;;0.10;;
42192;SDS011;52467;40.114;18.306;2023-09-12T05:38:29;0.10;;;0.10;;
42192;SDS011;52467;40.114;18.306;2023-09-12T05:40:57;0.10;;;0.10;;
42192;SDS011;52467;40.114;18.306;2023-09-12T05:43:24;0.10;;;0.10;;
42192;SDS011;52467;40.114;18.306;2023-09-12T05:45:52;0.10;;;0.10;;
42192;SDS011;52467;40.114;18.306;2023-09-12T05:48:19;0.10;;;0.10;;
42192;SDS011;52467;40.114;18.306;2023-09-12T05:50:47;0.10;;;0.10;;
42192;SDS011;52467;40.114;18.306;2023-09-12T05:53:14;0.10;;;0.10;;
42192;SDS011;52467;40.114;18.306;2023-09-12T05:55:42;0.10;;;0.10;;
42192;SDS011;52467;40.114;18.306;2023-09-12T05:58:09;0.10;;;0.10;;
42192;SDS011;52467;40.114;18.306;2023-09-12T06:00:37;0.10;;;0.10;;
42192;SDS011;52467;40.114;18.306;2023-09-12T06:03:04;0.10;;;0.10;;
42192;SDS011;52467;40.114;18.306;2023-09-12T06:05:32;0.10;;;0.10;;
42192;SDS011;52467;40.114;18.306;2023-09-12T06:07:59;0.10;;;0.10;;
42192;SDS011;52467;40.114;18.306;2023-09-12T06:10:26;0.10;;;0.10;;
42192;SDS011;52467;40.114;18.306;2023-09-12T06:12:54;0.10;;;0.10;;
42192;SDS011;52467;40.114;18.306;2023-09-12T06:15:21;0.10;;;0.10;;
42192;SDS011;52467;40.114;18.306;2023-09-12T06:17:49;0.10;;;0.10;;
42192;SDS011;52467;40.114;18.306;2023-09-12T06:20:16;0.10;;;0.10;;
42192;SDS011;52467;40.114;18.306;2023-09-12T06:22:43;0.10;;;0.10;;
42192;SDS011;52467;40.114;18.306;2023-09-12T06:25:11;0.10;;;0.10;;
42192;SDS011;52467;40.114;18.306;2023-09-12T06:27:38;0.10;;;0.10;;
42192;SDS011;52467;40.114;18.306;2023-09-12T06:30:06;0.10;;;0.10;;
42192;SDS011;52467;40.114;18.306;2023-09-12T06:32:34;0.10;;;0.10;;
42192;SDS011;52467;40.114;18.306;2023-09-12T06:35:02;0.10;;;0.10;;
42192;SDS011;52467;40.114;18.306;2023-09-12T06:37:29;0.10;;;0.10;;
42192;SDS011;52467;40.114;18.306;2023-09-12T06:39:57;0.10;;;0.10;;
42192;SDS011;52467;40.114;18.306;2023-09-12T06:42:24;0.10;;;0.10;;
42192;SDS011;52467;40.114;18.306;2023-09-12T06:44:52;0.10;;;0.10;;
42192;SDS011;52467;40.114;18.306;2023-09-12T06:47:19;0.10;;;0.10;;
42192;SDS011;52467;40.114;18.306;2023-09-12T06:49:46;0.10;;;0.10;;
42192;SDS011;52467;40.114;18.306;2023-09-12T06:52:17;0.10;;;0.10;;
42192;SDS011;52467;40.114;18.306;2023-09-12T06:54:44;0.10;;;0.10;;
42192;SDS011;52467;40.114;18.306;2023-09-12T06:57:11;0.10;;;0.10;;
42192;SDS011;52467;40.114;18.306;2023-09-12T06:59:39;0.10;;;0.10;;
42192;SDS011;52467;40.114;18.306;2023-09-12T07:02:06;0.10;;;0.10;;
42192;SDS011;52467;40.114;18.306;2023-09-12T07:04:34;0.10;;;0.10;;
42192;SDS011;52467;40.114;18.306;2023-09-12T07:07:01;0.10;;;0.10;;
42192;SDS011;52467;40.114;18.306;2023-09-12T07:09:28;0.10;;;0.10;;
42192;SDS011;52467;40.114;18.306;2023-09-12T07:11:56;0.10;;;0.10;;
42192;SDS011;52467;40.114;18.306;2023-09-12T07:14:23;0.10;;;0.10;;
42192;SDS011;52467;40.114;18.306;2023-09-12T07:16:52;0.05;;;0.05;;
42192;SDS011;52467;40.114;18.306;2023-09-12T07:19:19;0.00;;;0.00;;
42192;SDS011;52467;40.114;18.306;2023-09-12T07:21:47;0.10;;;0.10;;
42192;SDS011;52467;40.114;18.306;2023-09-12T07:24:15;0.10;;;0.10;;
42192;SDS011;52467;40.114;18.306;2023-09-12T07:26:42;0.10;;;0.10;;
42192;SDS011;52467;40.114;18.306;2023-09-12T07:29:09;0.10;;;0.10;;
42192;SDS011;52467;40.114;18.306;2023-09-12T07:31:37;0.10;;;0.10;;
42192;SDS011;52467;40.114;18.306;2023-09-12T07:34:05;0.10;;;0.10;;
42192;SDS011;52467;40.114;18.306;2023-09-12T07:36:34;0.10;;;0.10;;
42192;SDS011;52467;40.114;18.306;2023-09-12T07:39:01;0.10;;;0.10;;
42192;SDS011;52467;40.114;18.306;2023-09-12T07:41:30;0.10;;;0.10;;
42192;SDS011;52467;40.114;18.306;2023-09-12T07:43:57;0.10;;;0.10;;
42192;SDS011;52467;40.114;18.306;2023-09-12T07:46:25;0.10;;;0.10;;
42192;SDS011;52467;40.114;18.306;2023-09-12T07:48:53;0.10;;;0.10;;
42192;SDS011;52467;40.114;18.306;2023-09-12T07:51:20;0.10;;;0.10;;
42192;SDS011;52467;40.114;18.306;2023-09-12T07:53:49;0.10;;;0.10;;
42192;SDS011;52467;40.114;18.306;2023-09-12T07:56:18;0.10;;;0.10;;
42192;SDS011;52467;40.114;18.306;2023-09-12T07:58:46;0.10;;;0.10;;
42192;SDS011;52467;40.114;18.306;2023-09-12T08:01:13;0.10;;;0.10;;
42192;SDS011;52467;40.114;18.306;2023-09-12T08:03:42;0.10;;;0.10;;
42192;SDS011;52467;40.114;18.306;2023-09-12T08:06:10;0.10;;;0.10;;
42192;SDS011;52467;40.114;18.306;2023-09-12T08:08:37;0.10;;;0.10;;
42192;SDS011;52467;40.114;18.306;2023-09-12T08:11:04;0.10;;;0.10;;
42192;SDS011;52467;40.114;18.306;2023-09-12T08:13:32;0.00;;;0.00;;
42192;SDS011;52467;40.114;18.306;2023-09-12T08:15:59;0.10;;;0.10;;
42192;SDS011;52467;40.114;18.306;2023-09-12T08:18:28;0.10;;;0.10;;
42192;SDS011;52467;40.114;18.306;2023-09-12T08:20:56;0.10;;;0.10;;
42192;SDS011;52467;40.114;18.306;2023-09-12T08:23:24;0.10;;;0.10;;
42192;SDS011;52467;40.114;18.306;2023-09-12T08:25:51;0.10;;;0.10;;
42192;SDS011;52467;40.114;18.306;2023-09-12T08:28:19;0.10;;;0.10;;
42192;SDS011;52467;40.114;18.306;2023-09-12T08:30:46;0.10;;;0.10;;
42192;SDS011;52467;40.114;18.306;2023-09-12T08:33:14;0.10;;;0.10;;
42192;SDS011;52467;40.114;18.306;2023-09-12T08:35:41;0.10;;;0.10;;
42192;SDS011;52467;40.114;18.306;2023-09-12T08:38:10;0.00;;;0.00;;
42192;SDS011;52467;40.114;18.306;2023-09-12T08:40:38;0.10;;;0.10;;
42192;SDS011;52467;40.114;18.306;2023-09-12T08:43:05;0.10;;;0.10;;
42192;SDS011;52467;40.114;18.306;2023-09-12T08:45:33;0.10;;;0.10;;
42192;SDS011;52467;40.114;18.306;2023-09-12T08:48:03;0.10;;;0.10;;
42192;SDS011;52467;40.114;18.306;2023-09-12T08:50:30;0.10;;;0.10;;
42192;SDS011;52467;40.114;18.306;2023-09-12T08:53:00;0.10;;;0.10;;
42192;SDS011;52467;40.114;18.306;2023-09-12T08:55:32;0.10;;;0.10;;
42192;SDS011;52467;40.114;18.306;2023-09-12T08:58:02;0.10;;;0.10;;
42192;SDS011;52467;40.114;18.306;2023-09-12T09:00:30;0.10;;;0.10;;
42192;SDS011;52467;40.114;18.306;2023-09-12T09:02:58;0.10;;;0.10;;
42192;SDS011;52467;40.114;18.306;2023-09-12T09:05:27;0.10;;;0.10;;
42192;SDS011;52467;40.114;18.306;2023-09-12T09:07:55;0.10;;;0.10;;
42192;SDS011;52467;40.114;18.306;2023-09-12T09:10:23;0.10;;;0.10;;
42192;SDS011;52467;40.114;18.306;2023-09-12T09:12:59;0.10;;;0.10;;
42192;SDS011;52467;40.114;18.306;2023-09-12T09:15:28;0.10;;;0.10;;
42192;SDS011;52467;40.114;18.306;2023-09-12T09:17:57;0.10;;;0.10;;
42192;SDS011;52467;40.114;18.306;2023-09-12T09:20:32;0.10;;;0.10;;
42192;SDS011;52467;40.114;18.306;2023-09-12T09:23:09;0.10;;;0.10;;
42192;SDS011;52467;40.114;18.306;2023-09-12T09:25:41;0.10;;;0.10;;
42192;SDS011;52467;40.114;18.306;2023-09-12T09:28:18;0.10;;;0.10;;
42192;SDS011;52467;40.114;18.306;2023-09-12T09:30:47;0.10;;;0.10;;
42192;SDS011;52467;40.114;18.306;2023-09-12T09:33:18;0.10;;;0.10;;
42192;SDS011;52467;40.114;18.306;2023-09-12T09:35:48;0.10;;;0.10;;
42192;SDS011;52467;40.114;18.306;2023-09-12T09:38:18;0.10;;;0.10;;
42192;SDS011;52467;40.114;18.306;2023-09-12T09:40:46;0.10;;;0.10;;
42192;SDS011;52467;40.114;18.306;2023-09-12T09:43:13;0.10;;;0.10;;
42192;SDS011;52467;40.114;18.306;2023-09-12T09:45:49;0.10;;;0.10;;
42192;SDS011;52467;40.114;18.306;2023-09-12T09:48:20;0.10;;;0.10;;
42192;SDS011;52467;40.114;18.306;2023-09-12T09:50:48;0.10;;;0.10;;
42192;SDS011;52467;40.114;18.306;2023-09-12T09:53:16;0.05;;;0.05;;
42192;SDS011;52467;40.114;18.306;2023-09-12T09:55:43;0.10;;;0.10;;
42192;SDS011;52467;40.114;18.306;2023-09-12T09:58:14;0.00;;;0.00;;
42192;SDS011;52467;40.114;18.306;2023-09-12T10:00:45;0.10;;;0.10;;
42192;SDS011;52467;40.114;18.306;2023-09-12T10:03:14;0.10;;;0.10;;
42192;SDS011;52467;40.114;18.306;2023-09-12T10:05:46;0.08;;;0.08;;
42192;SDS011;52467;40.114;18.306;2023-09-12T10:08:17;0.10;;;0.10;;
42192;SDS011;52467;40.114;18.306;2023-09-12T10:10:45;0.00;;;0.00;;
42192;SDS011;52467;40.114;18.306;2023-09-12T10:13:14;0.10;;;0.10;;
42192;SDS011;52467;40.114;18.306;2023-09-12T10:15:41;0.10;;;0.10;;
42192;SDS011;52467;40.114;18.306;2023-09-12T10:18:11;0.10;;;0.10;;
42192;SDS011;52467;40.114;18.306;2023-09-12T10:21:04;0.10;;;0.10;;
42192;SDS011;52467;40.114;18.306;2023-09-12T10:23:38;0.10;;;0.10;;
42192;SDS011;52467;40.114;18.306;2023-09-12T10:26:12;0.10;;;0.10;;
42192;SDS011;52467;40.114;18.306;2023-09-12T10:28:40;0.10;;;0.10;;
42192;SDS011;52467;40.114;18.306;2023-09-12T10:31:11;0.10;;;0.10;;
42192;SDS011;52467;40.114;18.306;2023-09-12T10:33:39;0.10;;;0.10;;
42192;SDS011;52467;40.114;18.306;2023-09-12T10:36:08;0.10;;;0.10;;
42192;SDS011;52467;40.114;18.306;2023-09-12T10:38:38;0.10;;;0.10;;
42192;SDS011;52467;40.114;18.306;2023-09-12T10:41:11;0.10;;;0.10;;
42192;SDS011;52467;40.114;18.306;2023-09-12T10:43:40;0.10;;;0.10;;
42192;SDS011;52467;40.114;18.306;2023-09-12T10:46:09;0.10;;;0.10;;
42192;SDS011;52467;40.114;18.306;2023-09-12T10:48:36;0.10;;;0.10;;
42192;SDS011;52467;40.114;18.306;2023-09-12T10:51:04;0.10;;;0.10;;
42192;SDS011;52467;40.114;18.306;2023-09-12T10:53:31;0.10;;;0.10;;
42192;SDS011;52467;40.114;18.306;2023-09-12T11:01:33;0.10;;;0.10;;
42192;SDS011;52467;40.114;18.306;2023-09-12T11:06:54;0.10;;;0.10;;
42192;SDS011;52467;40.114;18.306;2023-09-12T11:09:22;0.10;;;0.10;;
42192;SDS011;52467;40.114;18.306;2023-09-12T11:12:03;0.10;;;0.10;;
42192;SDS011;52467;40.114;18.306;2023-09-12T11:14:32;0.10;;;0.10;;
42192;SDS011;52467;40.114;18.306;2023-09-12T11:19:44;0.10;;;0.10;;
42192;SDS011;52467;40.114;18.306;2023-09-12T11:22:29;0.10;;;0.10;;
42192;SDS011;52467;40.114;18.306;2023-09-12T11:25:01;0.10;;;0.10;;
42192;SDS011;52467;40.114;18.306;2023-09-12T11:27:33;0.10;;;0.10;;
42192;SDS011;52467;40.114;18.306;2023-09-12T11:30:12;0.10;;;0.10;;
42192;SDS011;52467;40.114;18.306;2023-09-12T11:32:40;0.10;;;0.10;;
42192;SDS011;52467;40.114;18.306;2023-09-12T11:35:07;0.10;;;0.10;;
42192;SDS011;52467;40.114;18.306;2023-09-12T11:37:35;0.10;;;0.10;;
42192;SDS011;52467;40.114;18.306;2023-09-12T11:42:40;0.10;;;0.10;;
42192;SDS011;52467;40.114;18.306;2023-09-12T11:45:09;0.10;;;0.10;;
42192;SDS011;52467;40.114;18.306;2023-09-12T11:47:40;0.10;;;0.10;;
42192;SDS011;52467;40.114;18.306;2023-09-12T11:50:25;0.10;;;0.10;;
42192;SDS011;52467;40.114;18.306;2023-09-12T11:53:02;0.10;;;0.10;;
42192;SDS011;52467;40.114;18.306;2023-09-12T11:55:35;0.10;;;0.10;;
42192;SDS011;52467;40.114;18.306;2023-09-12T11:58:18;0.10;;;0.10;;
42192;SDS011;52467;40.114;18.306;2023-09-12T12:00:53;0.10;;;0.10;;
42192;SDS011;52467;40.114;18.306;2023-09-12T12:03:25;0.10;;;0.10;;
42192;SDS011;52467;40.114;18.306;2023-09-12T12:05:54;0.10;;;0.10;;
42192;SDS011;52467;40.114;18.306;2023-09-12T12:08:22;0.10;;;0.10;;
42192;SDS011;52467;40.114;18.306;2023-09-12T12:10:53;0.10;;;0.10;;
42192;SDS011;52467;40.114;18.306;2023-09-12T12:13:21;0.10;;;0.10;;
42192;SDS011;52467;40.114;18.306;2023-09-12T12:15:49;0.10;;;0.10;;
42192;SDS011;52467;40.114;18.306;2023-09-12T12:18:16;0.10;;;0.10;;
42192;SDS011;52467;40.114;18.306;2023-09-12T12:20:44;0.10;;;0.10;;
42192;SDS011;52467;40.114;18.306;2023-09-12T12:23:12;0.10;;;0.10;;
42192;SDS011;52467;40.114;18.306;2023-09-12T12:25:39;0.10;;;0.10;;
42192;SDS011;52467;40.114;18.306;2023-09-12T12:28:07;0.10;;;0.10;;
42192;SDS011;52467;40.114;18.306;2023-09-12T12:30:35;0.10;;;0.10;;
42192;SDS011;52467;40.114;18.306;2023-09-12T12:33:09;0.10;;;0.10;;
42192;SDS011;52467;40.114;18.306;2023-09-12T12:35:37;0.10;;;0.10;;
42192;SDS011;52467;40.114;18.306;2023-09-12T12:38:08;0.10;;;0.10;;
42192;SDS011;52467;40.114;18.306;2023-09-12T12:40:39;0.10;;;0.10;;
42192;SDS011;52467;40.114;18.306;2023-09-12T12:43:17;0.10;;;0.10;;
42192;SDS011;52467;40.114;18.306;2023-09-12T12:45:54;0.10;;;0.10;;
42192;SDS011;52467;40.114;18.306;2023-09-12T12:48:31;0.10;;;0.10;;
42192;SDS011;52467;40.114;18.306;2023-09-12T12:51:11;0.10;;;0.10;;
42192;SDS011;52467;40.114;18.306;2023-09-12T12:53:40;0.10;;;0.10;;
42192;SDS011;52467;40.114;18.306;2023-09-12T12:56:15;0.10;;;0.10;;
42192;SDS011;52467;40.114;18.306;2023-09-12T12:58:45;0.20;;;0.20;;
42192;SDS011;52467;40.114;18.306;2023-09-12T13:01:17;0.10;;;0.10;;
42192;SDS011;52467;40.114;18.306;2023-09-12T13:03:44;0.10;;;0.10;;
42192;SDS011;52467;40.114;18.306;2023-09-12T13:06:12;0.20;;;0.20;;
42192;SDS011;52467;40.114;18.306;2023-09-12T13:08:41;0.20;;;0.20;;
42192;SDS011;52467;40.114;18.306;2023-09-12T13:11:09;0.20;;;0.20;;
42192;SDS011;52467;40.114;18.306;2023-09-12T13:13:38;0.20;;;0.20;;
42192;SDS011;52467;40.114;18.306;2023-09-12T13:16:08;0.25;;;0.25;;
42192;SDS011;52467;40.114;18.306;2023-09-12T13:18:36;0.20;;;0.20;;
42192;SDS011;52467;40.114;18.306;2023-09-12T13:21:04;0.30;;;0.30;;
42192;SDS011;52467;40.114;18.306;2023-09-12T13:23:35;0.30;;;0.30;;
42192;SDS011;52467;40.114;18.306;2023-09-12T13:26:04;0.30;;;0.30;;
42192;SDS011;52467;40.114;18.306;2023-09-12T13:28:32;0.30;;;0.30;;
42192;SDS011;52467;40.114;18.306;2023-09-12T13:31:00;0.35;;;0.35;;
42192;SDS011;52467;40.114;18.306;2023-09-12T13:33:27;0.30;;;0.30;;
42192;SDS011;52467;40.114;18.306;2023-09-12T13:35:55;0.30;;;0.30;;
42192;SDS011;52467;40.114;18.306;2023-09-12T13:38:22;0.30;;;0.30;;
42192;SDS011;52467;40.114;18.306;2023-09-12T13:40:50;0.20;;;0.20;;
42192;SDS011;52467;40.114;18.306;2023-09-12T13:43:18;0.20;;;0.20;;
42192;SDS011;52467;40.114;18.306;2023-09-12T13:45:47;0.20;;;0.20;;
42192;SDS011;52467;40.114;18.306;2023-09-12T13:48:14;0.10;;;0.10;;
42192;SDS011;52467;40.114;18.306;2023-09-12T13:50:42;0.10;;;0.10;;
42192;SDS011;52467;40.114;18.306;2023-09-12T13:53:10;0.10;;;0.10;;
42192;SDS011;52467;40.114;18.306;2023-09-12T13:55:37;0.10;;;0.10;;
42192;SDS011;52467;40.114;18.306;2023-09-12T13:58:05;0.10;;;0.10;;
42192;SDS011;52467;40.114;18.306;2023-09-12T14:00:33;0.10;;;0.10;;
42192;SDS011;52467;40.114;18.306;2023-09-12T14:03:02;0.10;;;0.10;;
42192;SDS011;52467;40.114;18.306;2023-09-12T14:05:30;0.10;;;0.10;;
42192;SDS011;52467;40.114;18.306;2023-09-12T14:07:58;0.10;;;0.10;;
42192;SDS011;52467;40.114;18.306;2023-09-12T14:10:25;0.10;;;0.10;;
42192;SDS011;52467;40.114;18.306;2023-09-12T14:13:00;0.10;;;0.10;;
42192;SDS011;52467;40.114;18.306;2023-09-12T14:15:36;0.10;;;0.10;;
42192;SDS011;52467;40.114;18.306;2023-09-12T14:18:03;0.10;;;0.10;;
42192;SDS011;52467;40.114;18.306;2023-09-12T14:20:31;0.10;;;0.10;;
42192;SDS011;52467;40.114;18.306;2023-09-12T14:22:59;0.10;;;0.10;;
42192;SDS011;52467;40.114;18.306;2023-09-12T14:25:26;0.10;;;0.10;;
42192;SDS011;52467;40.114;18.306;2023-09-12T14:27:53;0.10;;;0.10;;
42192;SDS011;52467;40.114;18.306;2023-09-12T14:30:21;0.10;;;0.10;;
42192;SDS011;52467;40.114;18.306;2023-09-12T14:32:49;0.10;;;0.10;;
42192;SDS011;52467;40.114;18.306;2023-09-12T14:35:16;0.10;;;0.10;;
42192;SDS011;52467;40.114;18.306;2023-09-12T14:37:44;0.10;;;0.10;;
42192;SDS011;52467;40.114;18.306;2023-09-12T14:40:12;0.10;;;0.10;;
42192;SDS011;52467;40.114;18.306;2023-09-12T14:42:42;0.10;;;0.10;;
42192;SDS011;52467;40.114;18.306;2023-09-12T14:45:09;0.10;;;0.10;;
42192;SDS011;52467;40.114;18.306;2023-09-12T14:47:37;0.10;;;0.10;;
42192;SDS011;52467;40.114;18.306;2023-09-12T14:50:05;0.10;;;0.10;;
42192;SDS011;52467;40.114;18.306;2023-09-12T14:52:33;0.10;;;0.10;;
42192;SDS011;52467;40.114;18.306;2023-09-12T14:55:01;0.10;;;0.10;;
42192;SDS011;52467;40.114;18.306;2023-09-12T14:57:29;0.10;;;0.10;;
42192;SDS011;52467;40.114;18.306;2023-09-12T14:59:57;0.10;;;0.10;;
42192;SDS011;52467;40.114;18.306;2023-09-12T15:02:25;0.10;;;0.10;;